sensor_id;sensor_type;location;lat;lon;timestamp;temperature;humidity
4425;DHT22;2225;53.568;13.266;2022-08-06T00:02:39;19.10;92.50
4425;DHT22;2225;53.568;13.266;2022-08-06T00:05:08;19.10;92.50
4425;DHT22;2225;53.568;13.266;2022-08-06T00:07:43;19.10;92.50
4425;DHT22;2225;53.568;13.266;2022-08-06T00:10:17;19.00;92.50
4425;DHT22;2225;53.568;13.266;2022-08-06T00:12:56;19.00;92.40
4425;DHT22;2225;53.568;13.266;2022-08-06T00:15:26;19.00;92.40
4425;DHT22;2225;53.568;13.266;2022-08-06T00:18:12;18.90;92.50
4425;DHT22;2225;53.568;13.266;2022-08-06T00:20:39;18.90;92.50
4425;DHT22;2225;53.568;13.266;2022-08-06T00:23:08;18.90;92.50
4425;DHT22;2225;53.568;13.266;2022-08-06T00:25:42;18.80;92.50
4425;DHT22;2225;53.568;13.266;2022-08-06T00:28:19;18.80;92.40
4425;DHT22;2225;53.568;13.266;2022-08-06T00:30:56;18.80;92.40
4425;DHT22;2225;53.568;13.266;2022-08-06T00:33:23;18.70;92.30
4425;DHT22;2225;53.568;13.266;2022-08-06T00:36:09;18.70;92.30
4425;DHT22;2225;53.568;13.266;2022-08-06T00:38:36;18.70;92.30
4425;DHT22;2225;53.568;13.266;2022-08-06T00:41:03;18.60;92.30
4425;DHT22;2225;53.568;13.266;2022-08-06T00:43:33;18.60;92.40
4425;DHT22;2225;53.568;13.266;2022-08-06T00:46:06;18.60;92.40
4425;DHT22;2225;53.568;13.266;2022-08-06T00:48:42;18.60;92.40
4425;DHT22;2225;53.568;13.266;2022-08-06T00:51:21;18.50;92.40
4425;DHT22;2225;53.568;13.266;2022-08-06T00:53:49;18.50;92.40
4425;DHT22;2225;53.568;13.266;2022-08-06T00:56:23;18.50;92.40
4425;DHT22;2225;53.568;13.266;2022-08-06T00:58:54;18.50;92.50
4425;DHT22;2225;53.568;13.266;2022-08-06T01:01:30;18.40;92.40
4425;DHT22;2225;53.568;13.266;2022-08-06T01:04:11;18.40;92.50
4425;DHT22;2225;53.568;13.266;2022-08-06T01:06:52;18.40;92.40
4425;DHT22;2225;53.568;13.266;2022-08-06T01:09:25;18.40;92.40
4425;DHT22;2225;53.568;13.266;2022-08-06T01:11:52;18.40;92.30
4425;DHT22;2225;53.568;13.266;2022-08-06T01:14:25;18.40;92.20
4425;DHT22;2225;53.568;13.266;2022-08-06T01:20:02;18.30;92.20
4425;DHT22;2225;53.568;13.266;2022-08-06T01:23:20;18.30;92.50
4425;DHT22;2225;53.568;13.266;2022-08-06T01:29:05;18.20;92.10
4425;DHT22;2225;53.568;13.266;2022-08-06T01:31:51;18.20;92.10
4425;DHT22;2225;53.568;13.266;2022-08-06T01:34:30;18.20;92.10
4425;DHT22;2225;53.568;13.266;2022-08-06T01:39:37;18.20;92.00
4425;DHT22;2225;53.568;13.266;2022-08-06T01:42:29;18.10;92.00
4425;DHT22;2225;53.568;13.266;2022-08-06T01:45:04;18.00;92.00
4425;DHT22;2225;53.568;13.266;2022-08-06T01:47:36;18.00;92.00
4425;DHT22;2225;53.568;13.266;2022-08-06T01:50:25;18.00;92.10
4425;DHT22;2225;53.568;13.266;2022-08-06T01:52:57;18.00;92.10
4425;DHT22;2225;53.568;13.266;2022-08-06T01:55:35;17.90;92.10
4425;DHT22;2225;53.568;13.266;2022-08-06T01:58:27;17.90;92.10
4425;DHT22;2225;53.568;13.266;2022-08-06T02:00:58;17.90;92.10
4425;DHT22;2225;53.568;13.266;2022-08-06T02:03:44;17.90;92.20
4425;DHT22;2225;53.568;13.266;2022-08-06T02:06:32;17.90;92.30
4425;DHT22;2225;53.568;13.266;2022-08-06T02:09:05;17.80;92.10
4425;DHT22;2225;53.568;13.266;2022-08-06T02:12:06;17.80;92.10
4425;DHT22;2225;53.568;13.266;2022-08-06T02:14:59;17.80;92.20
4425;DHT22;2225;53.568;13.266;2022-08-06T02:17:31;17.80;92.20
4425;DHT22;2225;53.568;13.266;2022-08-06T02:20:25;17.70;92.20
4425;DHT22;2225;53.568;13.266;2022-08-06T02:23:06;17.70;92.10
4425;DHT22;2225;53.568;13.266;2022-08-06T02:25:37;17.70;92.20
4425;DHT22;2225;53.568;13.266;2022-08-06T02:28:09;17.60;92.20
4425;DHT22;2225;53.568;13.266;2022-08-06T02:30:53;17.60;92.60
4425;DHT22;2225;53.568;13.266;2022-08-06T02:33:26;17.60;92.30
4425;DHT22;2225;53.568;13.266;2022-08-06T02:36:27;17.60;92.30
4425;DHT22;2225;53.568;13.266;2022-08-06T02:39:08;17.60;92.50
4425;DHT22;2225;53.568;13.266;2022-08-06T02:47:09;17.50;92.50
4425;DHT22;2225;53.568;13.266;2022-08-06T02:49:47;17.50;92.50
4425;DHT22;2225;53.568;13.266;2022-08-06T02:52:39;17.50;92.50
4425;DHT22;2225;53.568;13.266;2022-08-06T02:55:26;17.40;92.50
4425;DHT22;2225;53.568;13.266;2022-08-06T02:58:20;17.40;92.50
4425;DHT22;2225;53.568;13.266;2022-08-06T03:01:07;17.40;92.70
4425;DHT22;2225;53.568;13.266;2022-08-06T03:03:38;17.40;92.60
4425;DHT22;2225;53.568;13.266;2022-08-06T03:06:23;17.40;92.60
4425;DHT22;2225;53.568;13.266;2022-08-06T03:08:54;17.30;92.60
4425;DHT22;2225;53.568;13.266;2022-08-06T03:11:23;17.30;92.60
4425;DHT22;2225;53.568;13.266;2022-08-06T03:13:51;17.30;92.60
4425;DHT22;2225;53.568;13.266;2022-08-06T03:16:20;17.30;92.60
4425;DHT22;2225;53.568;13.266;2022-08-06T03:18:54;17.30;92.60
4425;DHT22;2225;53.568;13.266;2022-08-06T03:21:42;17.30;92.60
4425;DHT22;2225;53.568;13.266;2022-08-06T03:24:23;17.30;92.60
4425;DHT22;2225;53.568;13.266;2022-08-06T03:26:55;17.20;92.50
4425;DHT22;2225;53.568;13.266;2022-08-06T03:29:27;17.30;92.60
4425;DHT22;2225;53.568;13.266;2022-08-06T03:31:56;17.30;92.60
4425;DHT22;2225;53.568;13.266;2022-08-06T03:34:44;17.20;92.60
4425;DHT22;2225;53.568;13.266;2022-08-06T03:37:12;17.20;92.70
4425;DHT22;2225;53.568;13.266;2022-08-06T03:39:43;17.20;92.80
4425;DHT22;2225;53.568;13.266;2022-08-06T03:42:19;17.20;92.80
4425;DHT22;2225;53.568;13.266;2022-08-06T03:44:46;17.20;92.80
4425;DHT22;2225;53.568;13.266;2022-08-06T03:47:22;17.20;92.80
4425;DHT22;2225;53.568;13.266;2022-08-06T03:50:16;17.20;92.80
4425;DHT22;2225;53.568;13.266;2022-08-06T03:53:00;17.20;92.90
4425;DHT22;2225;53.568;13.266;2022-08-06T03:55:32;17.20;92.80
4425;DHT22;2225;53.568;13.266;2022-08-06T03:58:08;17.20;92.70
4425;DHT22;2225;53.568;13.266;2022-08-06T04:01:10;17.20;92.80
4425;DHT22;2225;53.568;13.266;2022-08-06T04:03:39;17.20;92.90
4425;DHT22;2225;53.568;13.266;2022-08-06T04:06:09;17.20;92.70
4425;DHT22;2225;53.568;13.266;2022-08-06T04:08:46;17.20;92.70
4425;DHT22;2225;53.568;13.266;2022-08-06T04:11:15;17.20;92.70
4425;DHT22;2225;53.568;13.266;2022-08-06T04:14:04;17.20;92.70
4425;DHT22;2225;53.568;13.266;2022-08-06T04:16:34;17.20;92.80
4425;DHT22;2225;53.568;13.266;2022-08-06T04:19:07;17.20;92.80
4425;DHT22;2225;53.568;13.266;2022-08-06T04:21:41;17.20;92.80
4425;DHT22;2225;53.568;13.266;2022-08-06T04:24:28;17.20;92.80
4425;DHT22;2225;53.568;13.266;2022-08-06T04:27:00;17.20;92.80
4425;DHT22;2225;53.568;13.266;2022-08-06T04:29:37;17.20;92.80
4425;DHT22;2225;53.568;13.266;2022-08-06T04:32:25;17.20;92.90
4425;DHT22;2225;53.568;13.266;2022-08-06T04:34:57;17.30;93.00
4425;DHT22;2225;53.568;13.266;2022-08-06T04:37:45;17.30;93.00
4425;DHT22;2225;53.568;13.266;2022-08-06T04:40:20;17.30;93.00
4425;DHT22;2225;53.568;13.266;2022-08-06T04:43:06;17.30;93.00
4425;DHT22;2225;53.568;13.266;2022-08-06T04:45:37;17.30;93.30
4425;DHT22;2225;53.568;13.266;2022-08-06T04:48:26;17.30;92.90
4425;DHT22;2225;53.568;13.266;2022-08-06T04:51:06;17.30;93.00
4425;DHT22;2225;53.568;13.266;2022-08-06T04:53:42;17.30;93.20
4425;DHT22;2225;53.568;13.266;2022-08-06T04:56:23;17.30;93.20
4425;DHT22;2225;53.568;13.266;2022-08-06T04:59:03;17.40;93.30
4425;DHT22;2225;53.568;13.266;2022-08-06T05:01:33;17.40;93.30
4425;DHT22;2225;53.568;13.266;2022-08-06T05:04:19;17.40;93.30
4425;DHT22;2225;53.568;13.266;2022-08-06T05:07:22;17.50;93.40
4425;DHT22;2225;53.568;13.266;2022-08-06T05:10:04;17.60;93.60
4425;DHT22;2225;53.568;13.266;2022-08-06T05:12:39;17.60;93.40
4425;DHT22;2225;53.568;13.266;2022-08-06T05:15:22;17.70;93.40
4425;DHT22;2225;53.568;13.266;2022-08-06T05:18:21;17.80;93.40
4425;DHT22;2225;53.568;13.266;2022-08-06T05:21:14;17.90;93.30
4425;DHT22;2225;53.568;13.266;2022-08-06T05:23:50;17.90;93.20
4425;DHT22;2225;53.568;13.266;2022-08-06T05:26:23;18.00;93.10
4425;DHT22;2225;53.568;13.266;2022-08-06T05:28:52;18.00;92.90
4425;DHT22;2225;53.568;13.266;2022-08-06T05:31:32;18.10;92.90
4425;DHT22;2225;53.568;13.266;2022-08-06T05:34:10;18.10;92.80
4425;DHT22;2225;53.568;13.266;2022-08-06T05:36:38;18.20;92.60
4425;DHT22;2225;53.568;13.266;2022-08-06T05:39:07;18.20;92.70
4425;DHT22;2225;53.568;13.266;2022-08-06T05:41:54;18.30;92.70
4425;DHT22;2225;53.568;13.266;2022-08-06T05:44:26;18.30;92.70
4425;DHT22;2225;53.568;13.266;2022-08-06T05:46:59;18.40;92.60
4425;DHT22;2225;53.568;13.266;2022-08-06T05:49:42;18.40;92.50
4425;DHT22;2225;53.568;13.266;2022-08-06T05:52:28;18.50;92.50
4425;DHT22;2225;53.568;13.266;2022-08-06T05:55:02;18.50;92.50
4425;DHT22;2225;53.568;13.266;2022-08-06T05:57:38;18.60;92.50
4425;DHT22;2225;53.568;13.266;2022-08-06T06:00:14;18.70;92.40
4425;DHT22;2225;53.568;13.266;2022-08-06T06:03:09;18.70;92.20
4425;DHT22;2225;53.568;13.266;2022-08-06T06:05:59;18.80;92.00
4425;DHT22;2225;53.568;13.266;2022-08-06T06:08:35;18.90;91.70
4425;DHT22;2225;53.568;13.266;2022-08-06T06:11:22;19.00;91.70
4425;DHT22;2225;53.568;13.266;2022-08-06T06:14:27;19.00;91.40
4425;DHT22;2225;53.568;13.266;2022-08-06T06:17:37;19.10;91.30
4425;DHT22;2225;53.568;13.266;2022-08-06T06:23:33;19.30;90.90
4425;DHT22;2225;53.568;13.266;2022-08-06T06:26:28;19.30;90.40
4425;DHT22;2225;53.568;13.266;2022-08-06T06:29:04;19.40;90.10
4425;DHT22;2225;53.568;13.266;2022-08-06T06:34:48;19.60;89.30
4425;DHT22;2225;53.568;13.266;2022-08-06T06:37:30;19.70;88.50
4425;DHT22;2225;53.568;13.266;2022-08-06T06:43:05;19.80;88.30
4425;DHT22;2225;53.568;13.266;2022-08-06T06:45:51;19.90;87.30
4425;DHT22;2225;53.568;13.266;2022-08-06T06:48:53;20.00;88.40
4425;DHT22;2225;53.568;13.266;2022-08-06T06:51:25;20.10;87.00
4425;DHT22;2225;53.568;13.266;2022-08-06T06:54:30;20.20;87.80
4425;DHT22;2225;53.568;13.266;2022-08-06T06:57:05;20.30;85.60
4425;DHT22;2225;53.568;13.266;2022-08-06T06:59:36;20.40;86.40
4425;DHT22;2225;53.568;13.266;2022-08-06T07:02:27;20.50;86.10
4425;DHT22;2225;53.568;13.266;2022-08-06T07:05:03;20.60;85.40
4425;DHT22;2225;53.568;13.266;2022-08-06T07:07:35;20.70;85.60
4425;DHT22;2225;53.568;13.266;2022-08-06T07:10:07;20.80;85.30
4425;DHT22;2225;53.568;13.266;2022-08-06T07:12:37;20.90;83.60
4425;DHT22;2225;53.568;13.266;2022-08-06T07:15:07;21.00;84.00
4425;DHT22;2225;53.568;13.266;2022-08-06T07:17:45;21.10;83.20
4425;DHT22;2225;53.568;13.266;2022-08-06T07:20:20;21.20;83.10
4425;DHT22;2225;53.568;13.266;2022-08-06T07:22:53;21.30;81.80
4425;DHT22;2225;53.568;13.266;2022-08-06T07:25:45;21.40;82.00
4425;DHT22;2225;53.568;13.266;2022-08-06T07:28:21;21.50;81.60
4425;DHT22;2225;53.568;13.266;2022-08-06T07:30:58;21.50;80.10
4425;DHT22;2225;53.568;13.266;2022-08-06T07:33:34;21.50;80.10
4425;DHT22;2225;53.568;13.266;2022-08-06T07:36:24;21.50;80.70
4425;DHT22;2225;53.568;13.266;2022-08-06T07:38:58;21.50;80.20
4425;DHT22;2225;53.568;13.266;2022-08-06T07:41:29;21.50;79.80
4425;DHT22;2225;53.568;13.266;2022-08-06T07:44:16;21.60;80.30
4425;DHT22;2225;53.568;13.266;2022-08-06T07:46:49;21.70;79.90
4425;DHT22;2225;53.568;13.266;2022-08-06T07:49:22;21.70;80.00
4425;DHT22;2225;53.568;13.266;2022-08-06T07:52:14;21.80;78.80
4425;DHT22;2225;53.568;13.266;2022-08-06T07:54:44;21.90;78.90
4425;DHT22;2225;53.568;13.266;2022-08-06T07:57:12;21.80;77.60
4425;DHT22;2225;53.568;13.266;2022-08-06T07:59:52;21.90;78.40
4425;DHT22;2225;53.568;13.266;2022-08-06T08:02:21;22.00;78.50
4425;DHT22;2225;53.568;13.266;2022-08-06T08:04:56;22.00;78.00
4425;DHT22;2225;53.568;13.266;2022-08-06T08:07:43;22.10;77.70
4425;DHT22;2225;53.568;13.266;2022-08-06T08:10:22;22.10;78.00
4425;DHT22;2225;53.568;13.266;2022-08-06T08:12:55;22.20;76.40
4425;DHT22;2225;53.568;13.266;2022-08-06T08:15:30;22.30;76.80
4425;DHT22;2225;53.568;13.266;2022-08-06T08:18:00;22.40;76.70
4425;DHT22;2225;53.568;13.266;2022-08-06T08:20:29;22.40;76.40
4425;DHT22;2225;53.568;13.266;2022-08-06T08:23:04;22.50;75.50
4425;DHT22;2225;53.568;13.266;2022-08-06T08:25:34;22.50;75.00
4425;DHT22;2225;53.568;13.266;2022-08-06T08:28:07;22.60;73.60
4425;DHT22;2225;53.568;13.266;2022-08-06T08:30:39;22.60;73.60
4425;DHT22;2225;53.568;13.266;2022-08-06T08:33:07;22.70;74.10
4425;DHT22;2225;53.568;13.266;2022-08-06T08:35:41;22.80;73.70
4425;DHT22;2225;53.568;13.266;2022-08-06T08:38:30;22.90;72.90
4425;DHT22;2225;53.568;13.266;2022-08-06T08:41:19;23.00;71.60
4425;DHT22;2225;53.568;13.266;2022-08-06T08:44:08;23.00;68.70
4425;DHT22;2225;53.568;13.266;2022-08-06T08:46:41;23.00;69.00
4425;DHT22;2225;53.568;13.266;2022-08-06T08:52:15;23.00;72.20
4425;DHT22;2225;53.568;13.266;2022-08-06T08:54:50;23.10;72.20
4425;DHT22;2225;53.568;13.266;2022-08-06T08:57:18;23.20;71.40
4425;DHT22;2225;53.568;13.266;2022-08-06T09:00:06;23.30;70.10
4425;DHT22;2225;53.568;13.266;2022-08-06T09:02:39;23.50;69.70
4425;DHT22;2225;53.568;13.266;2022-08-06T09:05:15;23.50;68.40
4425;DHT22;2225;53.568;13.266;2022-08-06T09:07:44;23.60;68.60
4425;DHT22;2225;53.568;13.266;2022-08-06T09:10:26;23.60;67.90
4425;DHT22;2225;53.568;13.266;2022-08-06T09:12:58;23.70;67.10
4425;DHT22;2225;53.568;13.266;2022-08-06T09:15:26;23.80;67.60
4425;DHT22;2225;53.568;13.266;2022-08-06T09:17:58;23.80;67.50
4425;DHT22;2225;53.568;13.266;2022-08-06T09:20:45;23.80;66.80
4425;DHT22;2225;53.568;13.266;2022-08-06T09:23:15;23.80;66.10
4425;DHT22;2225;53.568;13.266;2022-08-06T09:25:50;23.90;64.30
4425;DHT22;2225;53.568;13.266;2022-08-06T09:28:32;23.90;63.70
4425;DHT22;2225;53.568;13.266;2022-08-06T09:31:13;23.90;63.30
4425;DHT22;2225;53.568;13.266;2022-08-06T09:33:58;23.90;62.40
4425;DHT22;2225;53.568;13.266;2022-08-06T09:36:49;23.90;62.70
4425;DHT22;2225;53.568;13.266;2022-08-06T09:39:33;24.00;62.80
4425;DHT22;2225;53.568;13.266;2022-08-06T09:42:47;24.00;61.90
4425;DHT22;2225;53.568;13.266;2022-08-06T09:45:19;24.10;59.80
4425;DHT22;2225;53.568;13.266;2022-08-06T09:48:07;24.10;58.90
4425;DHT22;2225;53.568;13.266;2022-08-06T09:50:46;24.10;60.00
4425;DHT22;2225;53.568;13.266;2022-08-06T09:53:16;24.30;60.80
4425;DHT22;2225;53.568;13.266;2022-08-06T09:55:50;24.30;59.60
4425;DHT22;2225;53.568;13.266;2022-08-06T09:58:31;24.40;60.00
4425;DHT22;2225;53.568;13.266;2022-08-06T10:01:18;24.50;59.80
4425;DHT22;2225;53.568;13.266;2022-08-06T10:03:56;24.60;60.00
4425;DHT22;2225;53.568;13.266;2022-08-06T10:06:32;24.60;60.30
4425;DHT22;2225;53.568;13.266;2022-08-06T10:09:11;24.60;60.90
4425;DHT22;2225;53.568;13.266;2022-08-06T10:11:59;24.60;60.60
4425;DHT22;2225;53.568;13.266;2022-08-06T10:14:29;24.50;60.80
4425;DHT22;2225;53.568;13.266;2022-08-06T10:17:25;24.50;61.50
4425;DHT22;2225;53.568;13.266;2022-08-06T10:20:13;24.40;60.20
4425;DHT22;2225;53.568;13.266;2022-08-06T10:22:52;24.30;60.50
4425;DHT22;2225;53.568;13.266;2022-08-06T10:25:25;24.30;60.70
4425;DHT22;2225;53.568;13.266;2022-08-06T10:27:57;24.30;59.50
4425;DHT22;2225;53.568;13.266;2022-08-06T10:30:27;24.40;60.00
4425;DHT22;2225;53.568;13.266;2022-08-06T10:33:10;24.40;59.60
4425;DHT22;2225;53.568;13.266;2022-08-06T10:35:51;24.50;58.70
4425;DHT22;2225;53.568;13.266;2022-08-06T10:38:20;24.50;58.90
4425;DHT22;2225;53.568;13.266;2022-08-06T10:41:03;24.40;56.70
4425;DHT22;2225;53.568;13.266;2022-08-06T10:43:54;24.40;56.70
4425;DHT22;2225;53.568;13.266;2022-08-06T10:46:23;24.30;56.30
4425;DHT22;2225;53.568;13.266;2022-08-06T10:48:51;24.30;57.10
4425;DHT22;2225;53.568;13.266;2022-08-06T10:51:41;24.30;56.90
4425;DHT22;2225;53.568;13.266;2022-08-06T10:54:23;24.40;57.30
4425;DHT22;2225;53.568;13.266;2022-08-06T10:56:52;24.40;56.20
4425;DHT22;2225;53.568;13.266;2022-08-06T10:59:21;24.50;54.70
4425;DHT22;2225;53.568;13.266;2022-08-06T11:02:34;24.50;55.70
4425;DHT22;2225;53.568;13.266;2022-08-06T11:05:17;24.60;55.00
4425;DHT22;2225;53.568;13.266;2022-08-06T11:07:59;24.60;56.70
4425;DHT22;2225;53.568;13.266;2022-08-06T11:11:17;24.60;56.60
4425;DHT22;2225;53.568;13.266;2022-08-06T11:14:09;24.60;56.80
4425;DHT22;2225;53.568;13.266;2022-08-06T11:16:55;24.60;55.40
4425;DHT22;2225;53.568;13.266;2022-08-06T11:19:44;24.50;54.40
4425;DHT22;2225;53.568;13.266;2022-08-06T11:22:40;24.50;55.50
4425;DHT22;2225;53.568;13.266;2022-08-06T11:25:45;24.60;56.60
4425;DHT22;2225;53.568;13.266;2022-08-06T11:28:18;24.70;52.90
4425;DHT22;2225;53.568;13.266;2022-08-06T11:41:26;25.00;51.40
4425;DHT22;2225;53.568;13.266;2022-08-06T11:44:16;25.00;52.30
4425;DHT22;2225;53.568;13.266;2022-08-06T11:47:11;25.00;52.00
4425;DHT22;2225;53.568;13.266;2022-08-06T11:49:46;25.10;52.00
4425;DHT22;2225;53.568;13.266;2022-08-06T11:55:12;25.00;52.30
4425;DHT22;2225;53.568;13.266;2022-08-06T12:00:59;25.10;52.10
4425;DHT22;2225;53.568;13.266;2022-08-06T12:03:47;25.10;50.80
4425;DHT22;2225;53.568;13.266;2022-08-06T12:06:20;25.20;51.30
4425;DHT22;2225;53.568;13.266;2022-08-06T12:11:36;25.30;50.00
4425;DHT22;2225;53.568;13.266;2022-08-06T12:14:05;25.40;49.30
4425;DHT22;2225;53.568;13.266;2022-08-06T12:17:12;25.40;48.30
4425;DHT22;2225;53.568;13.266;2022-08-06T12:19:45;25.50;49.00
4425;DHT22;2225;53.568;13.266;2022-08-06T12:22:30;25.50;47.50
4425;DHT22;2225;53.568;13.266;2022-08-06T12:25:01;25.60;48.00
4425;DHT22;2225;53.568;13.266;2022-08-06T12:27:39;25.60;48.50
4425;DHT22;2225;53.568;13.266;2022-08-06T12:30:20;25.60;49.00
4425;DHT22;2225;53.568;13.266;2022-08-06T12:33:05;25.60;48.50
4425;DHT22;2225;53.568;13.266;2022-08-06T12:36:00;25.70;49.20
4425;DHT22;2225;53.568;13.266;2022-08-06T12:38:30;25.70;48.70
4425;DHT22;2225;53.568;13.266;2022-08-06T12:41:00;25.70;49.10
4425;DHT22;2225;53.568;13.266;2022-08-06T12:43:40;25.70;47.80
4425;DHT22;2225;53.568;13.266;2022-08-06T12:46:23;25.70;48.80
4425;DHT22;2225;53.568;13.266;2022-08-06T12:48:57;25.80;49.50
4425;DHT22;2225;53.568;13.266;2022-08-06T12:51:27;25.80;48.70
4425;DHT22;2225;53.568;13.266;2022-08-06T12:53:57;25.80;48.20
4425;DHT22;2225;53.568;13.266;2022-08-06T12:56:28;25.90;49.10
4425;DHT22;2225;53.568;13.266;2022-08-06T12:59:02;25.90;48.80
4425;DHT22;2225;53.568;13.266;2022-08-06T13:01:34;26.00;49.40
4425;DHT22;2225;53.568;13.266;2022-08-06T13:04:22;26.00;49.40
4425;DHT22;2225;53.568;13.266;2022-08-06T13:06:58;26.10;48.10
4425;DHT22;2225;53.568;13.266;2022-08-06T13:09:28;26.10;48.60
4425;DHT22;2225;53.568;13.266;2022-08-06T13:12:14;26.10;48.10
4425;DHT22;2225;53.568;13.266;2022-08-06T13:15:11;26.20;46.60
4425;DHT22;2225;53.568;13.266;2022-08-06T13:18:11;26.10;46.30
4425;DHT22;2225;53.568;13.266;2022-08-06T13:21:00;26.10;46.90
4425;DHT22;2225;53.568;13.266;2022-08-06T13:23:36;26.20;47.20
4425;DHT22;2225;53.568;13.266;2022-08-06T13:26:19;26.30;48.50
4425;DHT22;2225;53.568;13.266;2022-08-06T13:29:22;26.30;48.80
4425;DHT22;2225;53.568;13.266;2022-08-06T13:32:11;26.30;48.90
4425;DHT22;2225;53.568;13.266;2022-08-06T13:34:59;26.40;48.90
4425;DHT22;2225;53.568;13.266;2022-08-06T13:37:50;26.50;49.00
4425;DHT22;2225;53.568;13.266;2022-08-06T13:40:48;26.50;48.80
4425;DHT22;2225;53.568;13.266;2022-08-06T13:43:43;26.50;49.30
4425;DHT22;2225;53.568;13.266;2022-08-06T13:46:26;26.50;48.50
4425;DHT22;2225;53.568;13.266;2022-08-06T13:48:57;26.50;48.10
4425;DHT22;2225;53.568;13.266;2022-08-06T13:51:28;26.40;47.90
4425;DHT22;2225;53.568;13.266;2022-08-06T13:54:02;26.40;47.40
4425;DHT22;2225;53.568;13.266;2022-08-06T13:56:46;26.30;46.80
4425;DHT22;2225;53.568;13.266;2022-08-06T13:59:18;26.30;48.10
4425;DHT22;2225;53.568;13.266;2022-08-06T14:01:49;26.20;48.20
4425;DHT22;2225;53.568;13.266;2022-08-06T14:04:20;26.20;48.30
4425;DHT22;2225;53.568;13.266;2022-08-06T14:06:53;26.20;48.90
4425;DHT22;2225;53.568;13.266;2022-08-06T14:09:27;26.20;48.60
4425;DHT22;2225;53.568;13.266;2022-08-06T14:12:15;26.20;49.60
4425;DHT22;2225;53.568;13.266;2022-08-06T14:14:42;26.30;48.10
4425;DHT22;2225;53.568;13.266;2022-08-06T14:17:14;26.30;47.80
4425;DHT22;2225;53.568;13.266;2022-08-06T14:19:41;26.50;47.40
4425;DHT22;2225;53.568;13.266;2022-08-06T14:22:28;26.50;47.80
4425;DHT22;2225;53.568;13.266;2022-08-06T14:25:02;26.60;48.50
4425;DHT22;2225;53.568;13.266;2022-08-06T14:27:30;26.70;47.80
4425;DHT22;2225;53.568;13.266;2022-08-06T14:30:09;26.80;46.80
4425;DHT22;2225;53.568;13.266;2022-08-06T14:33:01;26.80;46.70
4425;DHT22;2225;53.568;13.266;2022-08-06T14:35:49;26.80;45.90
4425;DHT22;2225;53.568;13.266;2022-08-06T14:38:21;26.90;45.80
4425;DHT22;2225;53.568;13.266;2022-08-06T14:40:59;26.90;45.70
4425;DHT22;2225;53.568;13.266;2022-08-06T14:44:05;26.90;45.60
4425;DHT22;2225;53.568;13.266;2022-08-06T14:46:51;26.90;46.00
4425;DHT22;2225;53.568;13.266;2022-08-06T14:49:18;26.90;46.00
4425;DHT22;2225;53.568;13.266;2022-08-06T14:51:45;26.90;46.20
4425;DHT22;2225;53.568;13.266;2022-08-06T14:54:33;26.90;46.50
4425;DHT22;2225;53.568;13.266;2022-08-06T14:57:04;26.90;46.60
4425;DHT22;2225;53.568;13.266;2022-08-06T14:59:55;27.00;46.80
4425;DHT22;2225;53.568;13.266;2022-08-06T15:02:23;27.00;46.50
4425;DHT22;2225;53.568;13.266;2022-08-06T15:04:53;27.10;46.30
4425;DHT22;2225;53.568;13.266;2022-08-06T15:07:22;27.10;46.10
4425;DHT22;2225;53.568;13.266;2022-08-06T15:10:07;27.10;46.00
4425;DHT22;2225;53.568;13.266;2022-08-06T15:12:54;27.10;46.80
4425;DHT22;2225;53.568;13.266;2022-08-06T15:15:29;27.10;46.50
4425;DHT22;2225;53.568;13.266;2022-08-06T15:18:13;27.10;46.60
4425;DHT22;2225;53.568;13.266;2022-08-06T15:21:01;27.10;46.00
4425;DHT22;2225;53.568;13.266;2022-08-06T15:23:29;27.00;45.70
4425;DHT22;2225;53.568;13.266;2022-08-06T15:26:16;27.10;45.80
4425;DHT22;2225;53.568;13.266;2022-08-06T15:29:03;27.10;45.90
4425;DHT22;2225;53.568;13.266;2022-08-06T15:31:40;27.10;45.80
4425;DHT22;2225;53.568;13.266;2022-08-06T15:34:08;27.10;45.90
4425;DHT22;2225;53.568;13.266;2022-08-06T15:36:38;27.10;46.90
4425;DHT22;2225;53.568;13.266;2022-08-06T15:39:25;27.10;47.00
4425;DHT22;2225;53.568;13.266;2022-08-06T15:42:12;27.10;46.90
4425;DHT22;2225;53.568;13.266;2022-08-06T15:44:39;27.00;46.70
4425;DHT22;2225;53.568;13.266;2022-08-06T15:47:07;26.90;46.40
4425;DHT22;2225;53.568;13.266;2022-08-06T15:49:37;26.90;46.60
4425;DHT22;2225;53.568;13.266;2022-08-06T15:52:24;26.80;46.90
4425;DHT22;2225;53.568;13.266;2022-08-06T15:54:52;26.80;47.30
4425;DHT22;2225;53.568;13.266;2022-08-06T15:57:19;26.70;47.50
4425;DHT22;2225;53.568;13.266;2022-08-06T16:00:08;26.60;47.70
4425;DHT22;2225;53.568;13.266;2022-08-06T16:02:44;26.60;48.30
4425;DHT22;2225;53.568;13.266;2022-08-06T16:05:17;26.50;48.00
4425;DHT22;2225;53.568;13.266;2022-08-06T16:08:07;26.40;47.80
4425;DHT22;2225;53.568;13.266;2022-08-06T16:10:56;26.40;48.10
4425;DHT22;2225;53.568;13.266;2022-08-06T16:13:23;26.40;48.00
4425;DHT22;2225;53.568;13.266;2022-08-06T16:15:51;26.40;48.20
4425;DHT22;2225;53.568;13.266;2022-08-06T16:18:20;26.30;47.80
4425;DHT22;2225;53.568;13.266;2022-08-06T16:20:58;26.30;47.40
4425;DHT22;2225;53.568;13.266;2022-08-06T16:23:31;26.30;47.50
4425;DHT22;2225;53.568;13.266;2022-08-06T16:26:18;26.30;46.60
4425;DHT22;2225;53.568;13.266;2022-08-06T16:29:07;26.30;47.40
4425;DHT22;2225;53.568;13.266;2022-08-06T16:31:34;26.30;46.30
4425;DHT22;2225;53.568;13.266;2022-08-06T16:34:13;26.20;46.70
4425;DHT22;2225;53.568;13.266;2022-08-06T16:36:42;26.20;47.00
4425;DHT22;2225;53.568;13.266;2022-08-06T16:39:09;26.10;47.10
4425;DHT22;2225;53.568;13.266;2022-08-06T16:41:40;26.10;47.20
4425;DHT22;2225;53.568;13.266;2022-08-06T16:44:25;26.00;47.30
4425;DHT22;2225;53.568;13.266;2022-08-06T16:47:02;25.90;47.50
4425;DHT22;2225;53.568;13.266;2022-08-06T16:49:32;25.80;47.40
4425;DHT22;2225;53.568;13.266;2022-08-06T16:52:19;25.70;47.60
4425;DHT22;2225;53.568;13.266;2022-08-06T16:55:07;25.70;47.80
4425;DHT22;2225;53.568;13.266;2022-08-06T16:57:35;25.60;47.50
4425;DHT22;2225;53.568;13.266;2022-08-06T17:00:05;25.50;47.50
4425;DHT22;2225;53.568;13.266;2022-08-06T17:02:35;25.50;47.80
4425;DHT22;2225;53.568;13.266;2022-08-06T17:05:13;25.40;47.90
4425;DHT22;2225;53.568;13.266;2022-08-06T17:07:47;25.40;48.20
4425;DHT22;2225;53.568;13.266;2022-08-06T17:10:20;25.30;48.50
4425;DHT22;2225;53.568;13.266;2022-08-06T17:12:53;25.30;49.10
4425;DHT22;2225;53.568;13.266;2022-08-06T17:15:40;25.20;49.30
4425;DHT22;2225;53.568;13.266;2022-08-06T17:18:18;25.30;49.90
4425;DHT22;2225;53.568;13.266;2022-08-06T17:20:55;25.30;50.50
4425;DHT22;2225;53.568;13.266;2022-08-06T17:23:22;25.50;50.50
4425;DHT22;2225;53.568;13.266;2022-08-06T17:25:52;25.70;50.70
4425;DHT22;2225;53.568;13.266;2022-08-06T17:28:30;26.00;50.50
4425;DHT22;2225;53.568;13.266;2022-08-06T17:30:57;26.20;49.90
4425;DHT22;2225;53.568;13.266;2022-08-06T17:33:24;26.40;49.20
4425;DHT22;2225;53.568;13.266;2022-08-06T17:36:06;26.50;49.00
4425;DHT22;2225;53.568;13.266;2022-08-06T17:38:53;26.60;48.90
4425;DHT22;2225;53.568;13.266;2022-08-06T17:41:20;26.60;48.50
4425;DHT22;2225;53.568;13.266;2022-08-06T17:43:52;26.50;48.30
4425;DHT22;2225;53.568;13.266;2022-08-06T17:46:23;26.40;48.10